createdAt,value
2018-09-23T00:00:58.388Z,1011.30
2018-09-23T00:01:58.410Z,1011.26
2018-09-23T00:02:58.394Z,1011.21
2018-09-23T00:03:58.416Z,1011.23
2018-09-23T00:04:58.409Z,1011.20
2018-09-23T00:05:58.483Z,1011.19
2018-09-23T00:06:58.477Z,1011.21
2018-09-23T00:07:58.447Z,1011.15
2018-09-23T00:08:58.413Z,1011.17
2018-09-23T00:09:58.393Z,1011.13
2018-09-23T00:10:58.400Z,1011.08
2018-09-23T00:11:58.421Z,1011.08
2018-09-23T00:12:58.398Z,1011.08
2018-09-23T00:13:58.425Z,1011.04
2018-09-23T00:14:58.434Z,1011.04
2018-09-23T00:15:58.434Z,1010.96
2018-09-23T00:16:58.415Z,1010.97
2018-09-23T00:17:58.419Z,1010.97
2018-09-23T00:18:58.413Z,1010.96
2018-09-23T00:19:58.442Z,1010.92
2018-09-23T00:20:58.408Z,1010.98
2018-09-23T00:21:58.424Z,1010.93
2018-09-23T00:22:58.427Z,1010.96
2018-09-23T00:23:58.432Z,1010.95
2018-09-23T00:24:58.427Z,1010.95
2018-09-23T00:25:58.434Z,1010.90
2018-09-23T00:26:58.435Z,1010.90
2018-09-23T00:27:58.445Z,1010.92
2018-09-23T00:28:58.429Z,1010.89
2018-09-23T00:29:58.454Z,1010.92
2018-09-23T00:30:58.485Z,1010.90
2018-09-23T00:31:58.434Z,1010.86
2018-09-23T00:32:58.491Z,1010.87
2018-09-23T00:33:58.431Z,1010.89
2018-09-23T00:34:58.448Z,1010.93
2018-09-23T00:35:58.442Z,1010.93
2018-09-23T00:36:58.478Z,1010.93
2018-09-23T00:37:58.465Z,1010.90
2018-09-23T00:38:58.471Z,1010.87
2018-09-23T00:39:58.444Z,1010.89
2018-09-23T00:40:58.469Z,1010.89
2018-09-23T00:41:58.514Z,1010.86
2018-09-23T00:42:58.484Z,1010.88
2018-09-23T00:43:58.451Z,1010.91
2018-09-23T00:44:58.491Z,1010.95
2018-09-23T00:45:58.476Z,1010.96
2018-09-23T00:46:58.502Z,1010.98
2018-09-23T00:47:58.487Z,1010.92
2018-09-23T00:48:58.497Z,1010.96
2018-09-23T00:49:58.477Z,1010.98
2018-09-23T00:50:58.473Z,1010.96
2018-09-23T00:51:58.549Z,1010.93
2018-09-23T00:52:58.491Z,1010.90
2018-09-23T00:53:58.461Z,1010.84
2018-09-23T00:54:58.490Z,1010.84
2018-09-23T00:55:58.464Z,1010.82
2018-09-23T00:56:58.544Z,1010.83
2018-09-23T00:57:58.494Z,1010.77
2018-09-23T00:58:58.474Z,1010.77
2018-09-23T00:59:58.484Z,1010.76
2018-09-23T01:00:58.477Z,1010.73
2018-09-23T01:01:58.468Z,1010.74
2018-09-23T01:02:58.498Z,1010.76
2018-09-23T01:03:58.486Z,1010.73
2018-09-23T01:04:58.483Z,1010.69
2018-09-23T01:05:58.521Z,1010.63
2018-09-23T01:06:58.476Z,1010.62
2018-09-23T01:07:58.524Z,1010.60
2018-09-23T01:08:58.492Z,1010.60
2018-09-23T01:09:58.476Z,1010.58
2018-09-23T01:10:58.487Z,1010.57
2018-09-23T01:11:58.568Z,1010.52
2018-09-23T01:12:58.521Z,1010.52
2018-09-23T01:13:58.480Z,1010.49
2018-09-23T01:14:58.502Z,1010.51
2018-09-23T01:15:58.492Z,1010.46
2018-09-23T01:16:58.547Z,1010.46
2018-09-23T01:17:58.530Z,1010.42
2018-09-23T01:18:58.515Z,1010.47
2018-09-23T01:19:58.561Z,1010.45
2018-09-23T01:20:58.585Z,1010.42
2018-09-23T01:21:58.549Z,1010.39
2018-09-23T01:22:58.504Z,1010.41
2018-09-23T01:23:58.499Z,1010.41
2018-09-23T01:24:58.526Z,1010.40
2018-09-23T01:25:58.548Z,1010.39
2018-09-23T01:26:58.514Z,1010.35
2018-09-23T01:27:58.537Z,1010.36
2018-09-23T01:28:58.512Z,1010.35
2018-09-23T01:29:58.507Z,1010.33
2018-09-23T01:30:58.555Z,1010.32
2018-09-23T01:31:58.524Z,1010.33
2018-09-23T01:32:58.509Z,1010.32
2018-09-23T01:33:58.553Z,1010.30
2018-09-23T01:34:58.533Z,1010.26
2018-09-23T01:35:58.549Z,1010.20
2018-09-23T01:36:58.527Z,1010.22
2018-09-23T01:37:58.524Z,1010.17
2018-09-23T01:38:58.541Z,1010.12
2018-09-23T01:39:58.597Z,1010.09
2018-09-23T01:40:58.579Z,1010.05
2018-09-23T01:41:58.533Z,1010.04
2018-09-23T01:42:58.555Z,1010.03
2018-09-23T01:43:58.523Z,1009.98
2018-09-23T01:44:58.543Z,1009.98
2018-09-23T01:45:58.530Z,1009.96
2018-09-23T01:46:58.547Z,1009.97
2018-09-23T01:47:58.539Z,1009.96
2018-09-23T01:48:58.526Z,1009.96
2018-09-23T01:49:58.552Z,1009.96
2018-09-23T01:50:58.557Z,1009.95
2018-09-23T01:51:58.541Z,1009.93
2018-09-23T01:52:58.555Z,1009.93
2018-09-23T01:53:58.552Z,1009.94
2018-09-23T01:54:58.546Z,1009.92
2018-09-23T01:55:58.542Z,1009.92
2018-09-23T01:56:58.589Z,1009.93
2018-09-23T01:57:58.559Z,1009.91
2018-09-23T01:58:58.568Z,1009.93
2018-09-23T01:59:58.583Z,1009.89
2018-09-23T02:00:58.547Z,1009.85
2018-09-23T02:01:58.558Z,1009.84
2018-09-23T02:02:58.554Z,1009.86
2018-09-23T02:03:58.553Z,1009.83
2018-09-23T02:04:58.571Z,1009.85
2018-09-23T02:05:58.553Z,1009.85
2018-09-23T02:06:58.551Z,1009.88
2018-09-23T02:07:58.570Z,1009.85
2018-09-23T02:08:58.562Z,1009.85
2018-09-23T02:09:58.600Z,1009.80
2018-09-23T02:10:58.601Z,1009.82
2018-09-23T02:11:58.572Z,1009.80
2018-09-23T02:12:58.592Z,1009.80
2018-09-23T02:13:58.601Z,1009.79
2018-09-23T02:14:58.569Z,1009.78
2018-09-23T02:15:58.608Z,1009.74
2018-09-23T02:16:58.565Z,1009.73
2018-09-23T02:17:58.595Z,1009.71
2018-09-23T02:18:58.608Z,1009.70
2018-09-23T02:19:58.576Z,1009.67
2018-09-23T02:20:58.595Z,1009.70
2018-09-23T02:21:58.581Z,1009.67
2018-09-23T02:22:58.584Z,1009.64
2018-09-23T02:23:58.581Z,1009.64
2018-09-23T02:24:58.581Z,1009.66
2018-09-23T02:25:58.592Z,1009.67
2018-09-23T02:26:58.589Z,1009.66
2018-09-23T02:27:58.635Z,1009.66
2018-09-23T02:28:58.592Z,1009.62
2018-09-23T02:29:58.597Z,1009.61
2018-09-23T02:30:58.590Z,1009.58
2018-09-23T02:31:58.599Z,1009.56
2018-09-23T02:32:58.610Z,1009.55
2018-09-23T02:33:58.642Z,1009.50
2018-09-23T02:34:58.603Z,1009.44
2018-09-23T02:35:58.591Z,1009.39
2018-09-23T02:36:58.600Z,1009.45
2018-09-23T02:37:58.593Z,1009.46
2018-09-23T02:38:58.600Z,1009.45
2018-09-23T02:39:58.610Z,1009.46
2018-09-23T02:40:58.600Z,1009.42
2018-09-23T02:41:58.603Z,1009.38
2018-09-23T02:42:58.608Z,1009.34
2018-09-23T02:43:58.659Z,1009.30
2018-09-23T02:44:58.625Z,1009.26
2018-09-23T02:45:58.626Z,1009.23
2018-09-23T02:46:58.605Z,1009.22
2018-09-23T02:47:58.627Z,1009.23
2018-09-23T02:48:58.630Z,1009.23
2018-09-23T02:49:58.602Z,1009.24
2018-09-23T02:50:58.656Z,1009.22
2018-09-23T02:51:58.653Z,1009.19
2018-09-23T02:52:58.643Z,1009.16
2018-09-23T02:53:58.630Z,1009.17
2018-09-23T02:54:58.645Z,1009.13
2018-09-23T02:55:58.645Z,1009.13
2018-09-23T02:56:58.653Z,1009.12
2018-09-23T02:57:58.619Z,1009.07
2018-09-23T02:58:58.646Z,1009.10
2018-09-23T02:59:58.619Z,1009.07
2018-09-23T03:00:58.655Z,1009.10
2018-09-23T03:01:58.637Z,1009.09
2018-09-23T03:02:58.639Z,1009.01
2018-09-23T03:03:58.641Z,1009.01
2018-09-23T03:04:58.630Z,1008.94
2018-09-23T03:05:58.681Z,1008.94
2018-09-23T03:06:58.652Z,1009.00
2018-09-23T03:07:58.648Z,1008.99
2018-09-23T03:08:58.671Z,1009.01
2018-09-23T03:09:58.646Z,1009.03
2018-09-23T03:10:58.709Z,1008.94
2018-09-23T03:11:58.696Z,1008.93
2018-09-23T03:12:58.643Z,1008.90
2018-09-23T03:13:58.640Z,1008.87
2018-09-23T03:14:58.657Z,1008.95
2018-09-23T03:15:58.637Z,1008.87
2018-09-23T03:16:58.645Z,1008.85
2018-09-23T03:17:58.647Z,1008.85
2018-09-23T03:18:58.653Z,1008.88
2018-09-23T03:19:58.663Z,1008.86
2018-09-23T03:20:58.666Z,1008.83
2018-09-23T03:21:58.700Z,1008.83
2018-09-23T03:22:58.701Z,1008.79
2018-09-23T03:23:58.724Z,1008.76
2018-09-23T03:24:58.702Z,1008.74
2018-09-23T03:25:58.671Z,1008.72
2018-09-23T03:26:58.698Z,1008.70
2018-09-23T03:27:58.680Z,1008.72
2018-09-23T03:28:58.677Z,1008.69
2018-09-23T03:29:58.674Z,1008.69
2018-09-23T03:30:58.681Z,1008.76
2018-09-23T03:31:58.694Z,1008.79
2018-09-23T03:32:58.705Z,1008.78
2018-09-23T03:33:58.743Z,1008.81
2018-09-23T03:34:58.671Z,1008.78
2018-09-23T03:35:58.675Z,1008.74
2018-09-23T03:36:58.684Z,1008.75
2018-09-23T03:37:58.704Z,1008.72
2018-09-23T03:38:58.700Z,1008.60
2018-09-23T03:39:58.681Z,1008.59
2018-09-23T03:40:58.755Z,1008.57
2018-09-23T03:41:58.700Z,1008.56
2018-09-23T03:42:58.714Z,1008.52
2018-09-23T03:43:58.725Z,1008.53
2018-09-23T03:44:58.703Z,1008.49
2018-09-23T03:45:58.706Z,1008.47
2018-09-23T03:46:58.702Z,1008.43
2018-09-23T03:47:58.745Z,1008.33
2018-09-23T03:48:58.691Z,1008.36
2018-09-23T03:49:58.712Z,1008.39
2018-09-23T03:50:58.731Z,1008.43
2018-09-23T03:51:58.701Z,1008.36
2018-09-23T03:52:58.698Z,1008.35
2018-09-23T03:53:58.700Z,1008.32
2018-09-23T03:54:58.725Z,1008.30
2018-09-23T03:55:58.820Z,1008.26
2018-09-23T03:56:58.757Z,1008.20
2018-09-23T03:57:58.797Z,1008.09
2018-09-23T03:58:58.699Z,1008.09
2018-09-23T03:59:58.719Z,1008.02
2018-09-23T04:00:58.704Z,1007.97
2018-09-23T04:01:58.712Z,1007.92
2018-09-23T04:02:58.741Z,1007.84
2018-09-23T04:03:58.729Z,1007.80
2018-09-23T04:04:58.726Z,1007.78
2018-09-23T04:05:58.732Z,1007.84
2018-09-23T04:06:58.726Z,1007.91
2018-09-23T04:07:58.721Z,1007.87
2018-09-23T04:08:58.724Z,1007.85
2018-09-23T04:09:58.719Z,1007.81
2018-09-23T04:10:58.728Z,1007.83
2018-09-23T04:11:58.760Z,1007.87
2018-09-23T04:12:58.726Z,1007.88
2018-09-23T04:13:58.728Z,1007.91
2018-09-23T04:14:58.727Z,1007.91
2018-09-23T04:15:58.738Z,1007.95
2018-09-23T04:16:58.734Z,1007.99
2018-09-23T04:17:58.758Z,1008.00
2018-09-23T04:18:58.746Z,1008.00
2018-09-23T04:19:58.757Z,1008.04
2018-09-23T04:20:58.753Z,1008.03
2018-09-23T04:21:58.746Z,1008.00
2018-09-23T04:22:58.776Z,1008.02
2018-09-23T04:23:58.779Z,1008.03
2018-09-23T04:24:58.806Z,1008.04
2018-09-23T04:25:58.733Z,1008.02
2018-09-23T04:26:58.772Z,1008.00
2018-09-23T04:27:58.757Z,1007.92
2018-09-23T04:28:58.755Z,1007.89
2018-09-23T04:29:58.750Z,1007.83
2018-09-23T04:30:58.763Z,1007.79
2018-09-23T04:31:58.762Z,1007.82
2018-09-23T04:32:58.750Z,1007.77
2018-09-23T04:33:58.784Z,1007.76
2018-09-23T04:34:58.777Z,1007.76
2018-09-23T04:35:58.767Z,1007.74
2018-09-23T04:36:58.777Z,1007.75
2018-09-23T04:37:58.790Z,1007.75
2018-09-23T04:38:58.795Z,1007.81
2018-09-23T04:39:58.769Z,1007.86
2018-09-23T04:40:58.805Z,1007.90
2018-09-23T04:41:58.766Z,1007.93
2018-09-23T04:42:58.802Z,1007.90
2018-09-23T04:43:58.789Z,1007.94
2018-09-23T04:44:58.838Z,1007.92
2018-09-23T04:45:58.764Z,1007.91
2018-09-23T04:46:58.785Z,1007.93
2018-09-23T04:47:58.794Z,1007.85
2018-09-23T04:48:58.795Z,1007.90
2018-09-23T04:49:58.781Z,1007.84
2018-09-23T04:50:58.789Z,1007.79
2018-09-23T04:51:58.781Z,1007.71
2018-09-23T04:52:58.788Z,1007.72
2018-09-23T04:53:58.800Z,1007.67
2018-09-23T04:54:58.812Z,1007.75
2018-09-23T04:55:58.826Z,1007.73
2018-09-23T04:56:58.794Z,1007.75
2018-09-23T04:57:58.810Z,1007.73
2018-09-23T04:58:58.784Z,1007.76
2018-09-23T04:59:58.804Z,1007.79
2018-09-23T05:00:58.816Z,1007.79
2018-09-23T05:01:58.851Z,1007.80
2018-09-23T05:02:58.799Z,1007.77
2018-09-23T05:03:58.797Z,1007.73
2018-09-23T05:04:58.826Z,1007.69
2018-09-23T05:05:58.789Z,1007.66
2018-09-23T05:06:58.797Z,1007.63
2018-09-23T05:07:58.801Z,1007.60
2018-09-23T05:08:58.811Z,1007.60
2018-09-23T05:09:58.836Z,1007.47
2018-09-23T05:10:58.811Z,1007.49
2018-09-23T05:11:58.814Z,1007.42
2018-09-23T05:12:58.821Z,1007.44
2018-09-23T05:13:58.828Z,1007.53
2018-09-23T05:14:58.807Z,1007.63
2018-09-23T05:15:58.840Z,1007.71
2018-09-23T05:16:58.810Z,1007.73
2018-09-23T05:17:58.823Z,1007.74
2018-09-23T05:18:58.834Z,1007.72
2018-09-23T05:19:58.808Z,1007.74
2018-09-23T05:20:58.821Z,1007.73
2018-09-23T05:21:58.833Z,1007.73
2018-09-23T05:22:58.834Z,1007.76
2018-09-23T05:23:58.823Z,1007.74
2018-09-23T05:24:58.826Z,1007.73
2018-09-23T05:25:58.866Z,1007.72
2018-09-23T05:26:58.826Z,1007.75
2018-09-23T05:27:58.833Z,1007.71
2018-09-23T05:28:58.836Z,1007.73
2018-09-23T05:29:58.845Z,1007.75
2018-09-23T05:30:58.906Z,1007.68
2018-09-23T05:31:58.849Z,1007.66
2018-09-23T05:32:58.863Z,1007.65
2018-09-23T05:33:58.859Z,1007.61
2018-09-23T05:34:58.842Z,1007.59
2018-09-23T05:35:58.826Z,1007.57
2018-09-23T05:36:58.861Z,1007.59
2018-09-23T05:37:58.845Z,1007.60
2018-09-23T05:38:58.860Z,1007.61
2018-09-23T05:39:58.874Z,1007.61
2018-09-23T05:40:58.856Z,1007.62
2018-09-23T05:41:58.850Z,1007.62
2018-09-23T05:42:58.854Z,1007.63
2018-09-23T05:43:58.880Z,1007.68
2018-09-23T05:44:58.848Z,1007.70
2018-09-23T05:45:58.843Z,1007.68
2018-09-23T05:46:58.855Z,1007.70
2018-09-23T05:47:58.855Z,1007.66
2018-09-23T05:48:58.871Z,1007.70
2018-09-23T05:49:58.865Z,1007.65
2018-09-23T05:50:58.874Z,1007.59
2018-09-23T05:51:58.867Z,1007.48
2018-09-23T05:52:58.886Z,1007.36
2018-09-23T05:53:58.867Z,1007.33
2018-09-23T05:54:58.889Z,1007.26
2018-09-23T05:55:58.881Z,1007.30
2018-09-23T05:56:58.899Z,1007.27
2018-09-23T05:57:58.871Z,1007.35
2018-09-23T05:58:58.888Z,1007.35
2018-09-23T05:59:58.900Z,1007.32
2018-09-23T06:00:58.897Z,1007.28
2018-09-23T06:01:58.895Z,1007.21
2018-09-23T06:02:58.895Z,1007.25
2018-09-23T06:03:58.905Z,1007.17
2018-09-23T06:04:58.907Z,1007.16
2018-09-23T06:05:58.924Z,1007.20
2018-09-23T06:06:58.927Z,1007.20
2018-09-23T06:07:58.964Z,1007.16
2018-09-23T06:08:58.933Z,1007.21
2018-09-23T06:09:58.906Z,1007.22
2018-09-23T06:10:58.910Z,1007.21
2018-09-23T06:11:58.913Z,1007.24
2018-09-23T06:12:58.893Z,1007.29
2018-09-23T06:13:58.891Z,1007.30
2018-09-23T06:14:58.905Z,1007.36
2018-09-23T06:15:58.882Z,1007.39
2018-09-23T06:16:58.911Z,1007.47
2018-09-23T06:17:58.927Z,1007.51
2018-09-23T06:18:58.897Z,1007.49
2018-09-23T06:19:59.010Z,1007.38
2018-09-23T06:20:58.934Z,1007.30
2018-09-23T06:21:58.959Z,1007.28
2018-09-23T06:22:58.922Z,1007.26
2018-09-23T06:23:58.935Z,1007.25
2018-09-23T06:24:58.958Z,1007.30
2018-09-23T06:25:58.947Z,1007.25
2018-09-23T06:26:58.968Z,1007.27
2018-09-23T06:27:58.919Z,1007.28
2018-09-23T06:28:58.972Z,1007.32
2018-09-23T06:29:58.956Z,1007.36
2018-09-23T06:30:58.939Z,1007.34
2018-09-23T06:31:58.941Z,1007.34
2018-09-23T06:32:58.962Z,1007.36
2018-09-23T06:33:58.968Z,1007.32
2018-09-23T06:34:59.002Z,1007.31
2018-09-23T06:35:58.934Z,1007.26
2018-09-23T06:36:58.991Z,1007.24
2018-09-23T06:37:58.951Z,1007.18
2018-09-23T06:38:58.971Z,1007.19
2018-09-23T06:39:58.958Z,1007.23
2018-09-23T06:40:59.012Z,1007.24
2018-09-23T06:41:58.975Z,1007.22
2018-09-23T06:42:58.966Z,1007.23
2018-09-23T06:43:58.989Z,1007.22
2018-09-23T06:44:58.956Z,1007.15
2018-09-23T06:45:58.979Z,1007.07
2018-09-23T06:46:58.944Z,1007.05
2018-09-23T06:47:58.963Z,1006.98
2018-09-23T06:48:58.983Z,1007.02
2018-09-23T06:49:58.943Z,1007.02
2018-09-23T06:50:58.981Z,1007.02
2018-09-23T06:51:58.963Z,1007.04
2018-09-23T06:52:58.960Z,1007.08
2018-09-23T06:53:59.008Z,1007.13
2018-09-23T06:54:58.961Z,1007.16
2018-09-23T06:55:58.963Z,1007.18
2018-09-23T06:56:59.006Z,1007.17
2018-09-23T06:57:58.988Z,1007.25
2018-09-23T06:58:58.991Z,1007.28
2018-09-23T06:59:59.010Z,1007.34
2018-09-23T07:00:58.981Z,1007.28
2018-09-23T07:01:58.979Z,1007.33
2018-09-23T07:02:58.972Z,1007.29
2018-09-23T07:03:58.973Z,1007.27
2018-09-23T07:04:59.030Z,1007.23
2018-09-23T07:05:58.983Z,1007.23
2018-09-23T07:06:58.991Z,1007.22
2018-09-23T07:07:58.979Z,1007.16
2018-09-23T07:08:58.983Z,1007.02
2018-09-23T07:09:59.017Z,1006.97
2018-09-23T07:10:59.107Z,1006.92
2018-09-23T07:11:58.976Z,1006.91
2018-09-23T07:12:58.981Z,1006.90
2018-09-23T07:13:59.001Z,1006.99
2018-09-23T07:14:59.009Z,1007.04
2018-09-23T07:15:59.015Z,1007.09
2018-09-23T07:16:58.979Z,1007.17
2018-09-23T07:17:59.037Z,1007.15
2018-09-23T07:18:59.063Z,1007.16
2018-09-23T07:19:59.036Z,1007.19
2018-09-23T07:20:59.028Z,1007.14
2018-09-23T07:21:59.010Z,1007.15
2018-09-23T07:22:59.024Z,1007.17
2018-09-23T07:23:59.083Z,1007.16
2018-09-23T07:24:59.007Z,1007.19
2018-09-23T07:25:59.011Z,1007.14
2018-09-23T07:26:59.011Z,1007.13
2018-09-23T07:27:59.074Z,1007.11
2018-09-23T07:28:59.009Z,1007.04
2018-09-23T07:29:59.073Z,1007.07
2018-09-23T07:30:59.021Z,1007.05
2018-09-23T07:31:59.088Z,1007.07
2018-09-23T07:32:59.189Z,1007.04
2018-09-23T07:33:59.252Z,1006.99
2018-09-23T07:34:59.123Z,1006.99
2018-09-23T07:35:59.122Z,1006.96
2018-09-23T07:36:59.193Z,1006.90
2018-09-23T07:37:59.029Z,1006.86
2018-09-23T07:38:59.114Z,1006.85
2018-09-23T07:39:59.129Z,1006.85
2018-09-23T07:40:59.074Z,1006.84
2018-09-23T07:41:59.090Z,1006.82
2018-09-23T07:42:59.073Z,1006.76
2018-09-23T07:43:59.036Z,1006.74
2018-09-23T07:44:59.034Z,1006.72
2018-09-23T07:45:59.031Z,1006.70
2018-09-23T07:46:59.054Z,1006.69
2018-09-23T07:47:59.108Z,1006.63
2018-09-23T07:48:59.049Z,1006.63
2018-09-23T07:49:59.049Z,1006.62
2018-09-23T07:50:59.050Z,1006.61
2018-09-23T07:51:59.069Z,1006.61
2018-09-23T07:52:59.087Z,1006.60
2018-09-23T07:53:59.061Z,1006.52
2018-09-23T07:54:59.085Z,1006.54
2018-09-23T07:55:59.047Z,1006.48
2018-09-23T07:56:59.055Z,1006.45
2018-09-23T07:57:59.055Z,1006.47
2018-09-23T07:58:59.050Z,1006.48
2018-09-23T07:59:59.261Z,1006.56
2018-09-23T08:00:59.062Z,1006.61
2018-09-23T08:01:59.089Z,1006.58
2018-09-23T08:02:59.061Z,1006.63
2018-09-23T08:03:59.077Z,1006.68
2018-09-23T08:04:59.065Z,1006.71
2018-09-23T08:05:59.108Z,1006.69
2018-09-23T08:06:59.107Z,1006.65
2018-09-23T08:07:59.103Z,1006.61
2018-09-23T08:08:59.081Z,1006.56
2018-09-23T08:09:59.088Z,1006.53
2018-09-23T08:10:59.093Z,1006.52
2018-09-23T08:11:59.096Z,1006.58
2018-09-23T08:12:59.292Z,1006.55
2018-09-23T08:13:59.536Z,1006.53
2018-09-23T08:14:59.377Z,1006.47
2018-09-23T08:15:59.078Z,1006.43
2018-09-23T08:16:59.120Z,1006.45
2018-09-23T08:17:59.086Z,1006.45
2018-09-23T08:18:59.082Z,1006.51
2018-09-23T08:19:59.153Z,1006.53
2018-09-23T08:20:59.172Z,1006.58
2018-09-23T08:21:59.108Z,1006.59
2018-09-23T08:22:59.114Z,1006.54
2018-09-23T08:23:59.097Z,1006.44
2018-09-23T08:24:59.147Z,1006.36
2018-09-23T08:25:59.110Z,1006.35
2018-09-23T08:26:59.102Z,1006.35
2018-09-23T08:27:59.120Z,1006.32
2018-09-23T08:28:59.141Z,1006.36
2018-09-23T08:29:59.125Z,1006.31
2018-09-23T08:30:59.159Z,1006.35
2018-09-23T08:31:59.190Z,1006.33
2018-09-23T08:32:59.152Z,1006.25
2018-09-23T08:33:59.107Z,1006.21
2018-09-23T08:34:59.108Z,1006.12
2018-09-23T08:35:59.109Z,1006.08
2018-09-23T08:36:59.147Z,1006.13
2018-09-23T08:37:59.110Z,1006.19
2018-09-23T08:38:59.269Z,1006.18
2018-09-23T08:39:59.154Z,1006.19
2018-09-23T08:40:59.139Z,1006.17
2018-09-23T08:41:59.131Z,1006.14
2018-09-23T08:42:59.299Z,1006.11
2018-09-23T08:43:59.137Z,1006.12
2018-09-23T08:44:59.180Z,1006.13
2018-09-23T08:45:59.162Z,1006.14
2018-09-23T08:46:59.197Z,1006.08
2018-09-23T08:47:59.201Z,1006.10
2018-09-23T08:48:59.158Z,1006.13
2018-09-23T08:49:59.165Z,1006.09
2018-09-23T08:50:59.169Z,1006.13
2018-09-23T08:51:59.194Z,1006.13
2018-09-23T08:52:59.142Z,1006.16
2018-09-23T08:53:59.188Z,1006.21
2018-09-23T08:54:59.133Z,1006.25
2018-09-23T08:55:59.174Z,1006.23
2018-09-23T08:56:59.160Z,1006.20
2018-09-23T08:57:59.217Z,1006.09
2018-09-23T08:58:59.138Z,1006.04
2018-09-23T08:59:59.344Z,1006.04
2018-09-23T09:00:59.148Z,1006.02
2018-09-23T09:01:59.174Z,1006.04
2018-09-23T09:02:59.176Z,1006.03
2018-09-23T09:03:59.196Z,1006.03
2018-09-23T09:04:59.162Z,1006.02
2018-09-23T09:05:59.198Z,1006.00
2018-09-23T09:06:59.210Z,1006.00
2018-09-23T09:07:59.163Z,1005.97
2018-09-23T09:08:59.175Z,1005.95
2018-09-23T09:09:59.178Z,1005.97
2018-09-23T09:10:59.177Z,1005.93
2018-09-23T09:11:59.179Z,1005.90
2018-09-23T09:12:59.175Z,1005.88
2018-09-23T09:13:59.192Z,1005.84
2018-09-23T09:14:59.186Z,1005.78
2018-09-23T09:15:59.194Z,1005.74
2018-09-23T09:16:59.195Z,1005.72
2018-09-23T09:17:59.193Z,1005.74
2018-09-23T09:18:59.190Z,1005.76
2018-09-23T09:19:59.187Z,1005.77
2018-09-23T09:20:59.189Z,1005.76
2018-09-23T09:21:59.212Z,1005.70
2018-09-23T09:22:59.245Z,1005.77
2018-09-23T09:23:59.238Z,1005.76
2018-09-23T09:24:59.221Z,1005.81
2018-09-23T09:25:59.228Z,1005.78
2018-09-23T09:26:59.240Z,1005.68
2018-09-23T09:27:59.198Z,1005.66
2018-09-23T09:28:59.233Z,1005.57
2018-09-23T09:29:59.220Z,1005.49
2018-09-23T09:30:59.227Z,1005.49
2018-09-23T09:31:59.219Z,1005.45
2018-09-23T09:32:59.246Z,1005.36
2018-09-23T09:33:59.214Z,1005.30
2018-09-23T09:34:59.241Z,1005.29
2018-09-23T09:35:59.232Z,1005.27
2018-09-23T09:36:59.231Z,1005.26
2018-09-23T09:37:59.225Z,1005.27
2018-09-23T09:38:59.243Z,1005.28
2018-09-23T09:39:59.225Z,1005.26
2018-09-23T09:40:59.236Z,1005.25
2018-09-23T09:41:59.232Z,1005.28
2018-09-23T09:42:59.235Z,1005.30
2018-09-23T09:43:59.354Z,1005.27
2018-09-23T09:44:59.276Z,1005.27
2018-09-23T09:45:59.336Z,1005.23
2018-09-23T09:46:59.232Z,1005.18
2018-09-23T09:47:59.262Z,1005.19
2018-09-23T09:48:59.257Z,1005.21
2018-09-23T09:49:59.282Z,1005.25
2018-09-23T09:50:59.254Z,1005.25
2018-09-23T09:51:59.289Z,1005.25
2018-09-23T09:52:59.292Z,1005.26
2018-09-23T09:53:59.325Z,1005.26
2018-09-23T09:54:59.400Z,1005.24
2018-09-23T09:55:59.275Z,1005.28
2018-09-23T09:56:59.251Z,1005.26
2018-09-23T09:57:59.258Z,1005.24
2018-09-23T09:58:59.285Z,1005.23
2018-09-23T09:59:59.279Z,1005.18
2018-09-23T10:00:59.284Z,1005.12
2018-09-23T10:01:59.293Z,1005.10
2018-09-23T10:02:59.284Z,1005.08
2018-09-23T10:03:59.338Z,1005.06
2018-09-23T10:04:59.303Z,1005.02
2018-09-23T10:05:59.324Z,1005.04
2018-09-23T10:06:59.296Z,1004.99
2018-09-23T10:07:59.286Z,1005.03
2018-09-23T10:08:59.267Z,1005.06
2018-09-23T10:09:59.274Z,1005.01
2018-09-23T10:10:59.283Z,1004.99
2018-09-23T10:11:59.266Z,1005.11
2018-09-23T10:12:59.274Z,1005.14
2018-09-23T10:13:59.302Z,1005.20
2018-09-23T10:14:59.333Z,1005.16
2018-09-23T10:15:59.300Z,1005.18
2018-09-23T10:16:59.280Z,1005.16
2018-09-23T10:17:59.308Z,1005.15
2018-09-23T10:18:59.291Z,1005.06
2018-09-23T10:19:59.300Z,1004.91
2018-09-23T10:20:59.294Z,1004.79
2018-09-23T10:21:59.292Z,1004.70
2018-09-23T10:22:59.349Z,1004.65
2018-09-23T10:23:59.321Z,1004.61
2018-09-23T10:24:59.342Z,1004.67
2018-09-23T10:25:59.288Z,1004.74
2018-09-23T10:26:59.302Z,1004.74
2018-09-23T10:27:59.308Z,1004.79
2018-09-23T10:28:59.309Z,1004.80
2018-09-23T10:29:59.351Z,1004.81
2018-09-23T10:30:59.554Z,1004.77
2018-09-23T10:31:59.893Z,1004.85
2018-09-23T10:32:59.316Z,1004.85
2018-09-23T10:33:59.323Z,1004.88
2018-09-23T10:34:59.376Z,1004.92
2018-09-23T10:35:59.381Z,1004.91
2018-09-23T10:36:59.342Z,1004.98
2018-09-23T10:37:59.366Z,1004.99
2018-09-23T10:38:59.333Z,1004.98
2018-09-23T10:39:59.337Z,1005.06
2018-09-23T10:40:59.397Z,1005.10
2018-09-23T10:41:59.388Z,1005.13
2018-09-23T10:42:59.396Z,1005.20
2018-09-23T10:43:59.350Z,1005.24
2018-09-23T10:44:59.351Z,1005.33
2018-09-23T10:45:59.340Z,1005.36
2018-09-23T10:46:59.330Z,1005.37
2018-09-23T10:47:59.336Z,1005.39
2018-09-23T10:48:59.378Z,1005.32
2018-09-23T10:49:59.344Z,1005.31
2018-09-23T10:50:59.328Z,1005.29
2018-09-23T10:51:59.337Z,1005.24
2018-09-23T10:52:59.358Z,1005.18
2018-09-23T10:53:59.353Z,1005.07
2018-09-23T10:54:59.384Z,1004.97
2018-09-23T10:55:59.381Z,1004.92
2018-09-23T10:56:59.426Z,1004.79
2018-09-23T10:57:59.396Z,1004.81
2018-09-23T10:58:59.376Z,1004.81
2018-09-23T10:59:59.377Z,1004.87
2018-09-23T11:00:59.416Z,1004.83
2018-09-23T11:01:59.392Z,1004.75
2018-09-23T11:02:59.380Z,1004.71
2018-09-23T11:03:59.451Z,1004.70
2018-09-23T11:04:59.368Z,1004.69
2018-09-23T11:05:59.368Z,1004.72
2018-09-23T11:06:59.357Z,1004.73
2018-09-23T11:07:59.368Z,1004.62
2018-09-23T11:08:59.363Z,1004.53
2018-09-23T11:09:59.393Z,1004.46
2018-09-23T11:10:59.391Z,1004.47
2018-09-23T11:11:59.414Z,1004.50
2018-09-23T11:12:59.403Z,1004.48
2018-09-23T11:13:59.409Z,1004.45
2018-09-23T11:14:59.394Z,1004.40
2018-09-23T11:15:59.436Z,1004.43
2018-09-23T11:16:59.389Z,1004.41
2018-09-23T11:17:59.401Z,1004.45
2018-09-23T11:18:59.381Z,1004.51
2018-09-23T11:19:59.368Z,1004.56
2018-09-23T11:20:59.408Z,1004.66
2018-09-23T11:21:59.375Z,1004.67
2018-09-23T11:22:59.388Z,1004.71
2018-09-23T11:23:59.416Z,1004.73
2018-09-23T11:24:59.416Z,1004.72
2018-09-23T11:25:59.416Z,1004.73
2018-09-23T11:26:59.394Z,1004.63
2018-09-23T11:27:59.435Z,1004.67
2018-09-23T11:28:59.403Z,1004.66
2018-09-23T11:29:59.406Z,1004.69
2018-09-23T11:30:59.413Z,1004.67
2018-09-23T11:31:59.443Z,1004.65
2018-09-23T11:32:59.407Z,1004.61
2018-09-23T11:33:59.407Z,1004.60
2018-09-23T11:34:59.419Z,1004.59
2018-09-23T11:35:59.415Z,1004.54
2018-09-23T11:36:59.443Z,1004.51
2018-09-23T11:37:59.431Z,1004.52
2018-09-23T11:38:59.418Z,1004.42
2018-09-23T11:39:59.543Z,1004.39
2018-09-23T11:40:59.454Z,1004.32
2018-09-23T11:41:59.414Z,1004.28
2018-09-23T11:42:59.518Z,1004.27
2018-09-23T11:43:59.425Z,1004.14
2018-09-23T11:44:59.414Z,1004.10
2018-09-23T11:45:59.427Z,1004.06
2018-09-23T11:46:59.428Z,1004.09
2018-09-23T11:47:59.466Z,1004.06
2018-09-23T11:48:59.452Z,1004.04
2018-09-23T11:49:59.440Z,1003.95
2018-09-23T11:50:59.433Z,1003.95
2018-09-23T11:51:59.542Z,1003.95
2018-09-23T11:52:59.442Z,1003.92
2018-09-23T11:53:59.425Z,1003.88
2018-09-23T11:54:59.446Z,1003.89
2018-09-23T11:55:59.453Z,1003.94
2018-09-23T11:56:59.441Z,1003.88
2018-09-23T11:57:59.448Z,1003.84
2018-09-23T11:58:59.590Z,1003.81
2018-09-23T11:59:59.450Z,1003.86
2018-09-23T12:00:59.500Z,1003.87
2018-09-23T12:01:59.461Z,1003.85
2018-09-23T12:02:59.473Z,1003.89
2018-09-23T12:03:59.469Z,1003.94
2018-09-23T12:04:59.452Z,1003.91
2018-09-23T12:05:59.441Z,1003.96